»·PEaware :: EAL476 KSAN-KLAS

EAL476 :: KSAN-KLAS

FLIGHT INFORMATION

Flight Status: Arrived
Operator:
Eastern Air Lines
More flights by this operator :: More flights under this callsign
Pilot: Eduardo G. (33126)
Aircraft: AIRBUS A300B4-600
(A306)
More flights by this aircraft type
Origin: KSAN San Diego Intl-Lindbergh
United States
Destination: KLAS McCarran Intl
United States
More flights between these airports :: More routes between these airports
Route: PADRZ2 CHKNN SEBBY YELAH MISEN KEPEC6
File this flight plan on PilotEdge
Remarks:
Altitude:
(Current/Filed)
350ft
Speed:
(Current/Filed)
456kts
Departed: 11-Jan-21 06:39 PM
Arrived: 11-Jan-21 07:38 PM
Distance/Time
Traveled:
225nm/0:59
Distance/Time
To Go:
Arrived

Flight Plot

Page will automatically refresh every two minutes.

Flight plan parsing failed; only flown route is shown


Map Options




Map Legend


Flown Route
Filed Route
Departure Airport
Arrival Airport
Navaid (VOR, NDB)
Fix

Horizontal Profiles

Position Reports

Time Latitude Longitude Heading Altitude Ground
Speed
11-Jan-21 18:09 32.732494 -117.206391 191 30ft 0kts
11-Jan-21 18:10 32.732494 -117.206391 191 30ft 0kts
11-Jan-21 18:11 32.732494 -117.206391 191 30ft 0kts
11-Jan-21 18:12 32.732494 -117.206391 191 30ft 0kts
11-Jan-21 18:13 32.732494 -117.206391 191 30ft 0kts
11-Jan-21 18:14 32.732494 -117.206391 191 30ft 0kts
11-Jan-21 18:15 32.732494 -117.206391 191 30ft 0kts
11-Jan-21 18:16 32.732494 -117.206391 191 30ft 0kts
11-Jan-21 18:17 32.732494 -117.206391 191 30ft 0kts
11-Jan-21 18:18 32.732494 -117.206391 191 30ft 0kts
11-Jan-21 18:19 32.732494 -117.206391 191 30ft 0kts
11-Jan-21 18:20 32.732494 -117.206391 191 30ft 0kts
11-Jan-21 18:21 32.732494 -117.206391 191 30ft 0kts
11-Jan-21 18:22 32.732494 -117.206391 191 30ft 0kts
11-Jan-21 18:23 32.732494 -117.206391 191 30ft 0kts
11-Jan-21 18:24 32.732494 -117.206391 191 30ft 0kts
11-Jan-21 18:25 32.732657 -117.206352 191 30ft 2kts
11-Jan-21 18:26 32.733201 -117.206367 132 30ft 2kts
11-Jan-21 18:27 32.733294 -117.206618 92 30ft 0kts
11-Jan-21 18:28 32.733294 -117.206618 92 30ft 0kts
11-Jan-21 18:29 32.733281 -117.206246 92 30ft 0kts
11-Jan-21 18:30 32.734786 -117.205422 40 30ft 0kts
11-Jan-21 18:31 32.735652 -117.204274 52 30ft 17kts
11-Jan-21 18:32 32.734313 -117.197024 105 30ft 26kts
11-Jan-21 18:33 32.732424 -117.189331 106 30ft 23kts
11-Jan-21 18:34 32.730566 -117.181647 105 30ft 24kts
11-Jan-21 18:35 32.729490 -117.177020 90 30ft 0kts
11-Jan-21 18:36 32.729490 -117.177010 90 30ft 0kts
11-Jan-21 18:37 32.730380 -117.176530 287 30ft 14kts
11-Jan-21 18:38 32.738883 -117.212926 291 725ft 212kts
11-Jan-21 18:39 32.775965 -117.279166 307 4152ft 263kts
11-Jan-21 18:40 32.819306 -117.349546 311 8710ft 269kts
11-Jan-21 18:41 32.867602 -117.423848 310 12065ft 323kts
11-Jan-21 18:42 32.928746 -117.518163 310 14606ft 380kts
11-Jan-21 18:43 32.993119 -117.618349 310 14964ft 380kts
11-Jan-21 18:44 33.057420 -117.718269 312 14955ft 379kts
11-Jan-21 18:45 33.135999 -117.801339 320 14969ft 378kts
11-Jan-21 18:46 33.218050 -117.884247 321 17066ft 399kts
11-Jan-21 18:47 33.304961 -117.969114 321 20996ft 414kts
11-Jan-21 18:48 33.395534 -118.057627 320 23641ft 430kts
11-Jan-21 18:49 33.489236 -118.149350 320 25262ft 440kts
11-Jan-21 18:50 33.587004 -118.238830 333 25990ft 448kts
11-Jan-21 18:51 33.700463 -118.292536 357 26506ft 466kts
11-Jan-21 18:52 33.821439 -118.236705 42 28462ft 481kts
11-Jan-21 18:53 33.898133 -118.105000 52 30423ft 476kts
11-Jan-21 18:54 33.973801 -117.975936 51 33314ft 471kts
11-Jan-21 18:55 34.049358 -117.847760 51 35194ft 470kts
11-Jan-21 18:56 34.127506 -117.722362 46 35221ft 460kts
11-Jan-21 18:57 34.208521 -117.604006 46 35222ft 457kts
11-Jan-21 18:58 34.289415 -117.485690 46 35222ft 461kts
11-Jan-21 18:59 34.370798 -117.366312 46 35265ft 460kts
11-Jan-21 19:00 34.452289 -117.246339 47 35301ft 461kts
11-Jan-21 19:01 34.532716 -117.127461 46 35301ft 456kts
11-Jan-21 19:03 34.613304 -117.007888 46 34700ft 456kts
11-Jan-21 19:04 34.690384 -116.892963 46 32691ft 419kts
11-Jan-21 19:05 34.762789 -116.784722 47 30693ft 408kts
11-Jan-21 19:06 34.833082 -116.678955 47 28680ft 395kts
11-Jan-21 19:07 34.910233 -116.592717 35 26638ft 369kts
11-Jan-21 19:08 34.990281 -116.514150 35 24660ft 367kts
11-Jan-21 19:09 35.067113 -116.439250 34 24289ft 343kts
11-Jan-21 19:10 35.138961 -116.361584 42 24195ft 350kts
11-Jan-21 19:11 35.205238 -116.276671 42 22484ft 342kts
11-Jan-21 19:12 35.270000 -116.194966 42 20899ft 337kts
11-Jan-21 19:13 35.334603 -116.113554 42 19294ft 329kts
11-Jan-21 19:14 35.398168 -116.033468 42 17702ft 329kts
11-Jan-21 19:15 35.461287 -115.953747 42 16082ft 313kts
11-Jan-21 19:16 35.520794 -115.878417 42 14492ft 306kts
11-Jan-21 19:16 35.569838 -115.816229 42 13251ft 297kts
11-Jan-21 19:18 35.635102 -115.733259 42 13012ft 289kts
11-Jan-21 19:19 35.690735 -115.662236 43 13011ft 289kts
11-Jan-21 19:19 35.737092 -115.602496 42 13010ft 289kts
11-Jan-21 19:20 35.810593 -115.574617 2 13011ft 284kts
11-Jan-21 19:21 35.889094 -115.569180 1 13009ft 283kts
11-Jan-21 19:23 35.973587 -115.545092 52 12617ft 265kts
11-Jan-21 19:23 35.998753 -115.474344 64 11711ft 265kts
11-Jan-21 19:24 36.025456 -115.389888 69 10986ft 260kts
11-Jan-21 19:25 36.024347 -115.297311 90 10171ft 266kts
11-Jan-21 19:26 36.018351 -115.212363 90 9012ft 230kts
11-Jan-21 19:27 36.012807 -115.128361 90 8189ft 250kts
11-Jan-21 19:28 36.007527 -115.045654 89 7643ft 241kts
11-Jan-21 19:29 36.002796 -114.964668 89 6548ft 226kts
11-Jan-21 19:30 35.998439 -114.890647 89 5241ft 211kts
11-Jan-21 19:31 36.032633 -114.862549 324 3862ft 187kts
11-Jan-21 19:32 36.051756 -114.922220 290 3820ft 182kts
11-Jan-21 19:33 36.064347 -114.974653 292 3789ft 150kts
11-Jan-21 19:34 36.073742 -115.024860 275 3787ft 154kts
11-Jan-21 19:35 36.073722 -115.078551 273 3034ft 158kts
11-Jan-21 19:36 36.073695 -115.131492 270 2205ft 146kts
11-Jan-21 19:37 36.075209 -115.151200 323 2194ft 0kts
11-Jan-21 19:38 36.075209 -115.151200 323 2194ft 0kts
11-Jan-21 19:39 36.077783 -115.151926 58 2194ft 20kts
11-Jan-21 19:40 36.078415 -115.146569 83 2194ft 15kts
11-Jan-21 19:41 36.078396 -115.141787 37 2194ft 9kts
11-Jan-21 19:42 36.082304 -115.141572 0 2194ft 14kts
11-Jan-21 19:43 36.083436 -115.141491 23 2194ft 8kts
11-Jan-21 19:44 36.084856 -115.139129 30 2194ft 4kts
11-Jan-21 19:45 36.085267 -115.139031 3 2194ft 0kts
11-Jan-21 19:46 36.085267 -115.139031 3 2194ft 0kts
11-Jan-21 19:47 36.085267 -115.139031 3 2194ft 0kts

Navigation Log

Ident Type
Flight plan parsing failed, navigation log unavailable